Terminal Aerodrome Forecast
Issued by NWS Memphis, TN

Home | Current Version | Previous Version | Text Only | Print | Product List | Glossary On
Versions: 1 2 3 4 5 6 7 8 9 10 11 12 13 14 15 16 17 18 19 20 21 22 23 24
590
FTUS44 KMEG 071701 AAB
TAFMKL
TAF AMD
KMKL 071701Z 0717/0812 03007KT P6SM BKN025
     FM071900 02010KT P6SM SCT035 BKN250
     FM080200 02005KT P6SM SCT025 BKN120
     FM080800 36007KT P6SM BKN060=

USA.gov is the U.S. government's official web portal to all federal, state and local government web resources and services.